ACT        NSW        VIC        QLD        SA        WA        TAS        NT        INFO        CALC            by VK5ZD

Past Date/Time: (dd/mm/yyyy hh:mm or blank for current data)    

  Atmospheric Gas Attenuation - ITU Rec 676-11   --------------- dB/100km ---------------
WA Stations Date Time Temp RH % AH g/m3 Dew Point Wind Direction Speed kph Gust kph Barometer mB Rainfall Since 9am 24GHz 47GHz 76GHz 122GHz 134GHz 241GHz
Albany Airport 09/05 04:30 10.3 83 7.95 7.5 15 19 1030.5 0 18.3 26.5 39.7 103.8 95.4 327.4
Badgingarra 09/05 04:30 11.7 55 5.75 3 26 33 1013.1 0 13.6 22.0 29.7 77.5 64.4 219.0
Barimunya 09/05 04:30 14.7 38 4.78 0.5 24 33 1020.4 0 11.5 20.2 25.5 66.3 51.3 173.1
Barrow Island 09/05 04:30 24.5 45 10.07 11.8 46 54 1016.4 0 22.2 25.2 40.2 105.7 103.4 357.4
Bedout Island 09/05 04:30 24.2 52 11.44 13.7 50 59 1016 0 25.0 27.4 45.5 119.8 120.7 417.9
Bickley 09/05 04:30 11 64 6.41 4.5 28 43 1013.1 0 15.0 23.2 32.5 84.8 73.2 249.7
Boolgeeda 09/05 04:30 16.9 32 4.6 0.1 19 24 1018.3 0 11.0 19.4 24.2 62.8 47.8 161.3
Bridgetown 09/05 04:30 8.5 74 6.32 4.1 2 4 1028.7 0 14.9 24.3 33.8 88.1 75.4 257.0
Broome 09/05 04:30 19.3 46 7.63 7.4 17 24 1015.2 0 17.3 23.0 33.7 88.2 80.2 275.3
Bunbury 09/05 04:30 9.8 79 7.33 6.3 6 9 1027.9 0 17.0 25.5 37.2 97.4 87.4 299.3
Busselton Airport 09/05 04:30 10.4 70 6.75 5.2 17 19 1027.5 0 15.8 24.4 34.6 90.4 79.1 270.1
Cape Leeuwin 09/05 04:30 12.2 67 7.23 6.3 28 37 1026.9 0 16.7 24.7 35.7 93.3 83.4 285.6
Cape Naturaliste 09/05 04:30 16.2 63 8.69 9.2 37 46 1026.5 0 19.6 25.8 39.5 103.6 97.6 336.0
Carnarvon 09/05 04:30 18.2 32 4.97 1.3 17 20 1018.8 0 11.7 19.7 25.1 65.0 51.1 172.9
Christmas Creek 09/05 04:30 13.1 41 4.68 0.2 9 13 1020.8 0 11.3 20.4 25.7 66.7 51.1 172.5
Christmas Island 09/05 04:30 25.9 88 21.3 23.8 17 28 1009.6 0 45.8 43.9 87.1 230.6 257.6 894.8
Cocos Island 09/05 04:30 27.6 94 25.01 26.5 15 20 1009.2 0 53.5 50.5 103.8 275.0 312.5 1085.8
Collie East 09/05 04:30 4.7 92 6.13 3.5 0 6 1013.1 0 14.7 24.4 34.0 88.8 75.5 257.1
Coondewanna 09/05 04:30 13.1 42 4.79 0.5 7 11 1020.1 0 11.5 20.5 26.1 67.6 52.4 176.9
Cunderdin Airport 09/05 04:30 8.6 74 6.36 4.2 15 17 1028.9 0 15.0 24.3 33.9 88.4 75.8 258.6
Curtin 09/05 04:30 17.4 46 6.82 5.7 19 24 1013.5 0 15.7 22.2 31.5 82.3 72.3 247.5
Dalwallinu 09/05 04:30 9.7 65 5.99 3.4 13 17 1026.7 0 14.2 23.4 31.9 83.2 69.9 237.9
Dwellingup 09/05 04:30 12.2 60 6.48 4.7 22 37 1027.4 0 15.1 23.5 32.8 85.6 73.9 252.1
Eliwana Airport 09/05 04:30 17.3 31 4.57 0 15 19 1013.1 0.2 10.9 19.1 23.8 61.8 47.0 158.7
Esperance 09/05 04:30 13.4 78 9.07 9.6 9 17 1033.1 0 20.6 27.5 42.8 112.3 106.9 368.0
Esperance Airport 09/05 04:30 12.6 82 9.07 9.6 11 17 1032.9 0.2 20.6 27.8 43.3 113.4 108.0 371.8
Eucla 09/05 04:30 11.6 97 10.08 11.1 11 11 1031.7 1.2 22.9 29.8 48.1 126.4 123.8 426.6
Fitzroy Crossing 09/05 04:30 14.7 61 7.68 7.3 1014.8 0 17.6 24.2 35.8 93.8 85.6 293.7
Forrest 09/05 04:30 12.9 85 9.58 10.4 7 9 1031.3 0 21.7 28.5 45.2 118.5 114.5 394.7
Fortescue Dave Forrest 09/05 04:30 12.8 45 5.04 1.2 17 22 1020.3 0 12.1 21.0 27.0 70.3 55.5 187.8
Garden Island 09/05 04:30 15.5 58 7.67 7.3 22 30 1027 0 17.5 24.5 35.9 94.0 85.5 293.3
Geraldton Airport 09/05 04:30 16.5 43 6.04 3.9 32 41 1022.9 0 14.0 21.6 29.4 76.6 64.5 220.0
Gerangamete (Cfa) 09/05 06:20 9.5 100 9.1 9.5 6 7 1013.1 0 20.9 28.0 44.2 116.1 111.1 382.4
Giles* 09/05 06:00 7 53 4.11 -1.9 17 20 1023.9 0 10.3 21.1 25.7 66.5 48.4 161.8
Gingin Airport 09/05 04:30 14.1 51 6.19 4.1 26 37 1026.3 0 14.4 22.6 31.0 80.6 68.5 233.6
Golden Grove 09/05 04:30 10.9 54 5.37 2 13 17 1025.6 0 12.8 22.1 29.1 75.6 61.1 207.2
Gooseberry Hill 09/05 04:30 13.1 57 6.5 4.8 15 28 1013.1 0 15.1 22.8 32.0 83.5 72.4 247.1
Gudai-Darri Mine 09/05 04:30 15.7 38 5.08 1.4 24 30 1013.1 0 12.0 20.1 26.0 67.6 53.6 181.7
Halls Creek 09/05 06:00 14.9 67 8.54 8.8 9 9 1015.4 0 19.4 25.6 39.1 102.6 96.4 331.7
Hopetoun North 09/05 04:30 7 97 7.52 6.6 7 9 1031.7 0 17.6 26.8 39.6 103.5 93.6 320.5
Iron Bridge Mine 09/05 04:30 15 36 4.62 0.1 7 9 1018.7 0 11.1 19.8 24.9 64.4 49.2 165.9
Jacup 09/05 04:30 7.7 88 7.14 5.8 13 17 1030.7 0 16.7 25.9 37.6 98.2 87.4 298.9
Jandakot 09/05 04:30 14.1 53 6.43 4.7 19 24 1027 0 15.0 22.9 31.9 83.1 71.5 244.0
Kalgoorlie-Boulder 09/05 04:30 7.1 82 6.4 4.2 9 13 1030.2 0 15.2 24.9 34.8 90.7 77.9 265.7
Kalumburu 09/05 06:00 18.5 69 10.92 12.7 0 6 1012.3 0 24.3 28.2 46.6 122.6 122.5 423.4
Karijini North 09/05 04:30 17.1 33 4.8 0.7 22 35 1019.8 0 11.4 19.7 24.9 64.5 50.0 168.8
Karratha 09/05 04:30 22.4 25 4.96 1.4 26 35 1017.3 0 11.6 18.7 23.8 61.6 48.4 163.9
Katanning Rs 09/05 04:30 7.8 78 6.37 4.2 9 13 1029.9 0 15.1 24.6 34.3 89.5 76.8 261.9
Koolan Island / Koolan Central 09/05 04:27 23 46 9.45 10.9 24 26 1013.1 0 20.9 24.6 38.6 101.3 97.6 336.9
Kununurra Airport 09/05 06:00 22.6 47 9.44 10.7 17 22 1014.2 0 20.9 24.8 38.8 101.8 98.1 338.4
Lake Grace 09/05 04:30 7.7 79 6.41 4.3 6 11 1030.4 0 15.2 24.7 34.6 90.1 77.5 264.2
Lancelin (Defence) 09/05 04:30 14.1 50 6.07 3.8 19 28 1024.8 0 14.2 22.3 30.5 79.3 67.0 228.2
Laverton 09/05 04:30 9.4 81 7.33 6.3 15 20 1028.7 0 17.1 25.7 37.5 97.9 87.9 301.0
Learmonth 09/05 04:30 15.6 79 10.51 12 6 7 1017.7 0 23.6 28.7 46.9 123.3 122.0 421.4
Legendre Island 09/05 04:30 24.8 47 10.7 12.7 56 67 1016.4 0 23.5 26.1 42.4 111.5 110.7 382.8
Leinster 09/05 04:30 9.1 70 6.21 3.9 11 15 1026 0 14.7 23.8 33.0 86.0 73.2 249.5
Leonora Airport 09/05 04:30 9.4 71 6.42 4.4 13 17 1028.6 0 15.1 24.2 33.8 88.1 75.8 258.6
Lombadina 09/05 04:30 19.9 53 9.11 10 15 26 1013.2 0 20.4 25.0 38.8 101.8 97.3 335.4
Mandora 09/05 04:30 16.5 41 5.76 3.2 9 19 1017.3 0 13.5 21.1 28.2 73.5 61.0 207.6
Mandurah 09/05 04:30 14.4 54 6.68 5.2 11 17 1027.2 0 15.5 23.2 32.7 85.2 74.3 253.9
Manjimup 09/05 04:30 9.9 73 6.82 5.3 9 17 1028.1 0 16.0 24.7 35.2 91.8 80.5 275.2
Marble Bar 09/05 04:30 16.3 35 4.86 0.8 9 11 1019 0 11.6 19.9 25.3 65.6 51.1 172.7
Mardie 09/05 04:30 19.5 32 5.37 2.4 15 17 1017.2 0 12.5 19.9 25.9 67.4 54.5 185.1
Meekatharra 09/05 04:30 11.4 48 4.93 0.8 17 20 1024.3 0 11.9 21.3 27.3 70.8 55.4 187.1
Millendon (Swan Valley) 09/05 04:30 15 51 6.54 5 9 22 1026.7 0 15.2 22.9 31.9 83.2 72.0 245.9
Morawa Airport 09/05 04:30 11.4 53 5.44 2.2 13 19 1025.3 0 13.0 22.1 29.2 75.8 61.6 208.8
Mount Keith 09/05 04:30 8.2 67 5.61 2.4 13 17 1026.1 0 13.4 23.1 31.0 80.7 66.3 225.1
Mount Magnet Airport 09/05 04:30 12 50 5.33 1.9 15 20 1025.3 0 12.7 21.8 28.5 74.2 59.8 202.6
Munglinup West 09/05 04:30 11.9 81 8.58 8.7 9 13 1032 0 19.6 27.1 41.5 108.8 102.1 351.1
Newdegate 09/05 04:30 4.5 87 5.72 2.5 2 6 1030.5 0 13.8 24.5 33.1 86.2 71.3 241.9
Newman Airport 09/05 04:30 13.5 37 4.33 -0.9 13 19 1021.4 0 10.5 19.9 24.4 63.2 47.0 157.8
Norseman Airport 09/05 04:30 12.9 64 7.21 6.3 15 20 1031.5 0 16.7 24.6 35.5 92.7 82.7 283.2
North Island 09/05 04:30 20.9 50 9.11 10.1 39 50 1021.9 0 20.3 25.0 38.7 101.4 96.8 333.5
Onslow Airport 09/05 04:30 19 51 8.31 8.6 17 19 1018.3 0 18.7 24.2 36.4 95.4 88.9 305.8
Paraburdoo 09/05 04:30 17.2 32 4.69 0.4 20 30 1019.5 0 11.2 19.5 24.5 63.4 48.7 164.3
Pearce 09/05 04:30 14.5 49 6.09 3.9 22 37 1026.2 0 14.2 22.3 30.4 79.3 67.0 228.2
Perth 09/05 04:30 14.9 51 6.5 4.9 11 20 1026.8 0 15.1 22.8 31.8 82.9 71.6 244.5
Perth Airport 09/05 04:30 15.9 47 6.36 4.6 22 35 1026.7 0 14.7 22.4 30.9 80.5 69.0 235.6
Port Hedland 09/05 04:30 18.8 33 5.31 2.2 13 20 1017.7 0 12.4 19.9 26.0 67.5 54.3 184.5
Portable Btsa (Dfes) 09/05 04:20 17 36 5.21 2 7 9 1013.1 0 12.3 20.0 26.0 67.7 54.2 183.9
Portable Btsb (Dfes) 09/05 04:20 9.9 64 5.98 3.5 11 13 1013.1 0 14.2 22.8 31.3 81.6 68.8 234.1
Portable Btsd (Dfes) 09/05 04:20 6.3 82 6.07 3.4 13 13 1013.1 0 14.5 23.9 33.1 86.4 73.2 249.1
Portable Btsf (Dfes) 09/05 04:00 10.1 54 5.11 1.4 15 17 1013.1 0 12.3 21.4 27.9 72.7 57.9 195.9
Portable Btsh (Dfes) 09/05 04:20 9 97 8.55 8.5 0 2 1013.1 0 19.7 27.2 42.1 110.5 104.0 357.5
Portable Btsj (Dfes) 09/05 04:20 13.7 55 6.51 4.8 6 7 1013.1 0 15.1 22.7 31.8 83.0 71.9 245.7
Portable Btsk (Dfes) 09/05 04:20 16.3 43 5.97 3.8 6 7 1013.1 0 13.9 21.3 28.9 75.3 63.3 215.8
Portable Btsl (Dfes) 09/05 04:20 12.5 81 8.91 9.4 7 9 1013.1 0 20.3 26.8 41.7 109.6 104.2 358.8
Portable Btsm (Dfes) 09/05 04:20 12.2 40 4.32 -0.9 4 7 1013.1 0 10.6 19.8 24.5 63.5 47.2 158.7
Portable Btsn (Dfes) 09/05 04:20 10.4 59 5.69 2.8 11 11 1013.1 0 13.5 22.2 30.0 78.2 64.7 220.0
Portable Btso (Dfes) 09/05 04:20 8.4 76 6.45 4.4 4 6 1013.1 0 15.2 23.9 33.7 88.1 76.2 259.9
Red Rocks Point 09/05 04:30 13.7 90 10.66 12.1 0 0 1032.2 0 24.0 30.1 49.4 129.8 128.7 444.3
Rocky Gully South 09/05 04:30 10 72 6.77 5.2 22 32 1013.1 0 15.8 24.0 34.3 89.7 78.7 269.2
Roebourne Airport 09/05 04:30 19.5 31 5.2 1.9 20 26 1017.9 0 12.2 19.7 25.4 66.0 52.7 178.8
Rottnest Island 09/05 04:30 16.5 51 7.16 6.3 32 43 1026.2 0 16.4 23.4 33.6 87.7 78.1 267.4
Salmon Gums Rs 09/05 04:30 13.1 71 8.1 8 11 15 1013.1 0 18.6 25.3 38.1 100.0 92.7 318.4
Shannon 09/05 04:30 8.9 86 7.54 6.7 17 24 1013.1 0 17.5 25.6 37.9 99.3 90.2 309.0
Shark Bay Airport 09/05 04:30 15.2 65 8.44 8.7 15 17 1019.6 0 19.2 25.5 38.8 101.6 95.1 327.0
Solomon Airport 09/05 04:30 17.2 32 4.69 0.4 20 26 1018.3 0 11.2 19.5 24.4 63.3 48.6 164.2
Southern Cross Airport 09/05 04:30 8.4 73 6.2 3.8 13 17 1029.9 0 14.7 24.2 33.4 87.0 74.0 252.1
Swanbourne 09/05 04:30 13.7 65 7.7 7.2 9 13 1013.1 0 17.7 24.5 36.3 95.1 86.8 297.9
Telfer 09/05 04:30 12.8 42 4.7 0.2 20 26 1019.3 0 11.3 20.5 25.8 67.0 51.5 173.7
Thevenard Island 09/05 04:30 23.9 39 8.44 9.1 26 35 1017.7 0 18.8 23.1 34.7 91.0 85.1 293.0
Troughton Island 09/05 06:00 25.8 52 12.52 15.2 35 43 1011.9 0 27.2 28.4 48.6 128.0 131.4 455.6
Truscott 09/05 06:00 22.6 48 9.64 11 11 17 1011.5 0 21.4 25.0 39.4 103.5 100.3 346.2
Walpole North 09/05 04:30 10.3 78 7.47 6.6 11 17 1028.7 0 17.3 25.6 37.6 98.3 88.8 304.2
Wandering 09/05 04:30 10.7 64 6.29 4.2 9 20 1013.1 0 14.8 23.1 32.1 83.9 71.9 245.4
Warburton 09/05 06:00 8.2 56 4.69 0 13 17 1025.8 0 11.5 21.7 27.5 71.4 54.8 184.5
West Angelas 09/05 04:30 12.7 45 5.01 1.1 11 17 1019.3 0 12.0 20.9 26.9 70.0 55.2 186.6
West Musgrave Airport 09/05 04:30 7.1 58 4.53 -0.6 7 9 1013.1 0 11.2 21.3 26.8 69.7 52.9 178.0
Wiluna Airport 09/05 04:30 8.1 61 5.08 1 15 19 1025.2 0 12.3 22.3 29.0 75.3 59.6 201.6
Witchcliffe West 09/05 04:30 12.1 72 7.72 7.2 17 24 1026.8 0 17.8 25.5 37.7 98.6 89.9 308.4
Wyndham Airport 09/05 06:00 21.7 51 9.73 11.1 15 19 1013.4 0 21.6 25.4 40.2 105.7 102.7 354.5
Yampi Sound (Defence) 09/05 04:30 13.7 91 10.78 12.3 4 4 1017.5 0 24.3 29.8 49.2 129.4 129.0 445.2

Last Refresh: 09-May-2026 06:04:33

Bureau of Meteorology